Terminal Aerodrome Forecast
Issued by NWS Sioux Falls, SD

Home | Current Version | Previous Version | Text Only | Print | Product List | Glossary Off
Versions: 1 2 3 4 5 6 7 8 9 10 11 12 13 14 15 16 17 18 19

000
FTUS43 KFSD 171138
TAFFSD
TAF
KFSD 171138Z 1712/1812 18013KT P6SM SCT150
     FM171400 18009KT P6SM OVC020
     FM171600 23007KT P6SM OVC080
     FM171800 32007KT P6SM OVC070
     FM172100 35010KT P6SM OVC120=

USA.gov is the U.S. government's official web portal to all federal, state and local government web resources and services.